sensor_id;sensor_type;location;lat;lon;timestamp;P1;durP1;ratioP1;P2;durP2;ratioP2
73597;SDS011;61874;48.146;11.594;2022-07-19T00:01:48;5.85;;;2.00;;
73597;SDS011;61874;48.146;11.594;2022-07-19T00:04:14;3.13;;;1.73;;
73597;SDS011;61874;48.146;11.594;2022-07-19T00:06:39;4.07;;;1.83;;
73597;SDS011;61874;48.146;11.594;2022-07-19T00:09:05;3.20;;;1.70;;
73597;SDS011;61874;48.146;11.594;2022-07-19T00:11:30;3.90;;;1.85;;
73597;SDS011;61874;48.146;11.594;2022-07-19T00:13:56;4.65;;;1.98;;
73597;SDS011;61874;48.146;11.594;2022-07-19T00:16:21;4.88;;;1.70;;
73597;SDS011;61874;48.146;11.594;2022-07-19T00:18:47;5.00;;;2.22;;
73597;SDS011;61874;48.146;11.594;2022-07-19T00:21:12;3.78;;;2.10;;
73597;SDS011;61874;48.146;11.594;2022-07-19T00:23:38;4.00;;;1.75;;
73597;SDS011;61874;48.146;11.594;2022-07-19T00:26:03;3.15;;;1.80;;
73597;SDS011;61874;48.146;11.594;2022-07-19T00:28:29;2.88;;;1.70;;
73597;SDS011;61874;48.146;11.594;2022-07-19T00:30:55;3.47;;;1.92;;
73597;SDS011;61874;48.146;11.594;2022-07-19T00:33:20;5.20;;;1.80;;
73597;SDS011;61874;48.146;11.594;2022-07-19T00:35:46;4.50;;;2.03;;
73597;SDS011;61874;48.146;11.594;2022-07-19T00:38:12;4.22;;;1.90;;
73597;SDS011;61874;48.146;11.594;2022-07-19T00:40:39;4.88;;;1.90;;
73597;SDS011;61874;48.146;11.594;2022-07-19T00:43:06;3.80;;;1.80;;
73597;SDS011;61874;48.146;11.594;2022-07-19T00:45:32;4.65;;;2.03;;
73597;SDS011;61874;48.146;11.594;2022-07-19T00:47:57;4.50;;;1.70;;
73597;SDS011;61874;48.146;11.594;2022-07-19T00:50:22;4.50;;;1.60;;
73597;SDS011;61874;48.146;11.594;2022-07-19T00:52:49;3.83;;;2.03;;
73597;SDS011;61874;48.146;11.594;2022-07-19T00:55:20;4.80;;;2.00;;
73597;SDS011;61874;48.146;11.594;2022-07-19T00:57:47;4.75;;;2.22;;
73597;SDS011;61874;48.146;11.594;2022-07-19T01:00:13;3.80;;;2.00;;
73597;SDS011;61874;48.146;11.594;2022-07-19T01:02:41;5.88;;;2.10;;
73597;SDS011;61874;48.146;11.594;2022-07-19T01:05:08;7.38;;;1.90;;
73597;SDS011;61874;48.146;11.594;2022-07-19T01:07:35;4.00;;;2.08;;
73597;SDS011;61874;48.146;11.594;2022-07-19T01:10:03;3.85;;;1.95;;
73597;SDS011;61874;48.146;11.594;2022-07-19T01:12:31;6.00;;;2.75;;
73597;SDS011;61874;48.146;11.594;2022-07-19T01:14:57;4.60;;;2.08;;
73597;SDS011;61874;48.146;11.594;2022-07-19T01:17:23;2.83;;;1.70;;
73597;SDS011;61874;48.146;11.594;2022-07-19T01:19:49;3.88;;;2.03;;
73597;SDS011;61874;48.146;11.594;2022-07-19T01:22:15;4.43;;;2.10;;
73597;SDS011;61874;48.146;11.594;2022-07-19T01:24:40;3.72;;;1.77;;
73597;SDS011;61874;48.146;11.594;2022-07-19T01:27:06;4.03;;;1.83;;
73597;SDS011;61874;48.146;11.594;2022-07-19T01:29:32;4.72;;;2.78;;
73597;SDS011;61874;48.146;11.594;2022-07-19T01:32:00;4.18;;;1.90;;
73597;SDS011;61874;48.146;11.594;2022-07-19T01:34:26;5.43;;;2.03;;
73597;SDS011;61874;48.146;11.594;2022-07-19T01:36:51;3.67;;;1.92;;
73597;SDS011;61874;48.146;11.594;2022-07-19T01:39:17;8.18;;;2.20;;
73597;SDS011;61874;48.146;11.594;2022-07-19T01:41:42;4.22;;;2.03;;
73597;SDS011;61874;48.146;11.594;2022-07-19T01:44:07;4.65;;;2.38;;
73597;SDS011;61874;48.146;11.594;2022-07-19T01:46:33;5.07;;;1.70;;
73597;SDS011;61874;48.146;11.594;2022-07-19T01:48:58;3.90;;;2.20;;
73597;SDS011;61874;48.146;11.594;2022-07-19T01:51:24;4.80;;;2.15;;
73597;SDS011;61874;48.146;11.594;2022-07-19T01:53:49;4.57;;;2.00;;
73597;SDS011;61874;48.146;11.594;2022-07-19T01:56:15;3.22;;;2.00;;
73597;SDS011;61874;48.146;11.594;2022-07-19T01:58:40;4.93;;;2.45;;
73597;SDS011;61874;48.146;11.594;2022-07-19T02:01:06;4.57;;;2.33;;
73597;SDS011;61874;48.146;11.594;2022-07-19T02:03:31;4.47;;;2.03;;
73597;SDS011;61874;48.146;11.594;2022-07-19T02:05:57;3.47;;;1.73;;
73597;SDS011;61874;48.146;11.594;2022-07-19T02:08:22;4.72;;;1.90;;
73597;SDS011;61874;48.146;11.594;2022-07-19T02:10:48;4.22;;;2.10;;
73597;SDS011;61874;48.146;11.594;2022-07-19T02:13:13;5.03;;;2.05;;
73597;SDS011;61874;48.146;11.594;2022-07-19T02:15:39;5.25;;;2.30;;
73597;SDS011;61874;48.146;11.594;2022-07-19T02:18:04;6.10;;;1.90;;
73597;SDS011;61874;48.146;11.594;2022-07-19T02:20:30;4.72;;;2.10;;
73597;SDS011;61874;48.146;11.594;2022-07-19T02:22:55;4.85;;;2.10;;
73597;SDS011;61874;48.146;11.594;2022-07-19T02:25:21;3.85;;;1.98;;
73597;SDS011;61874;48.146;11.594;2022-07-19T02:27:47;4.78;;;2.40;;
73597;SDS011;61874;48.146;11.594;2022-07-19T02:30:12;4.57;;;2.45;;
73597;SDS011;61874;48.146;11.594;2022-07-19T02:32:39;5.45;;;2.05;;
73597;SDS011;61874;48.146;11.594;2022-07-19T02:35:05;6.03;;;2.13;;
73597;SDS011;61874;48.146;11.594;2022-07-19T02:37:32;9.43;;;2.53;;
73597;SDS011;61874;48.146;11.594;2022-07-19T02:39:57;6.95;;;2.20;;
73597;SDS011;61874;48.146;11.594;2022-07-19T02:42:23;5.90;;;2.40;;
73597;SDS011;61874;48.146;11.594;2022-07-19T02:44:48;5.40;;;2.03;;
73597;SDS011;61874;48.146;11.594;2022-07-19T02:47:14;3.97;;;2.22;;
73597;SDS011;61874;48.146;11.594;2022-07-19T02:49:39;7.00;;;2.40;;
73597;SDS011;61874;48.146;11.594;2022-07-19T02:52:05;5.28;;;2.15;;
73597;SDS011;61874;48.146;11.594;2022-07-19T02:54:30;4.10;;;2.00;;
73597;SDS011;61874;48.146;11.594;2022-07-19T02:56:56;4.35;;;2.75;;
73597;SDS011;61874;48.146;11.594;2022-07-19T02:59:21;4.95;;;2.40;;
73597;SDS011;61874;48.146;11.594;2022-07-19T03:01:46;4.80;;;2.17;;
73597;SDS011;61874;48.146;11.594;2022-07-19T03:04:12;4.63;;;2.15;;
73597;SDS011;61874;48.146;11.594;2022-07-19T03:06:37;4.82;;;2.50;;
73597;SDS011;61874;48.146;11.594;2022-07-19T03:09:03;4.28;;;2.10;;
73597;SDS011;61874;48.146;11.594;2022-07-19T03:11:28;4.97;;;2.50;;
73597;SDS011;61874;48.146;11.594;2022-07-19T03:13:53;5.18;;;2.20;;
73597;SDS011;61874;48.146;11.594;2022-07-19T03:16:19;4.03;;;2.17;;
73597;SDS011;61874;48.146;11.594;2022-07-19T03:18:44;4.95;;;2.30;;
73597;SDS011;61874;48.146;11.594;2022-07-19T03:21:09;4.82;;;2.20;;
73597;SDS011;61874;48.146;11.594;2022-07-19T03:23:35;4.60;;;2.45;;
73597;SDS011;61874;48.146;11.594;2022-07-19T03:26:02;3.80;;;2.10;;
73597;SDS011;61874;48.146;11.594;2022-07-19T03:28:28;5.97;;;2.65;;
73597;SDS011;61874;48.146;11.594;2022-07-19T03:30:53;4.00;;;2.17;;
73597;SDS011;61874;48.146;11.594;2022-07-19T03:33:19;3.90;;;2.20;;
73597;SDS011;61874;48.146;11.594;2022-07-19T03:35:45;4.65;;;2.17;;
73597;SDS011;61874;48.146;11.594;2022-07-19T03:38:12;5.35;;;2.28;;
73597;SDS011;61874;48.146;11.594;2022-07-19T03:40:37;5.20;;;2.20;;
73597;SDS011;61874;48.146;11.594;2022-07-19T03:43:04;6.72;;;2.22;;
73597;SDS011;61874;48.146;11.594;2022-07-19T03:45:29;4.05;;;2.45;;
73597;SDS011;61874;48.146;11.594;2022-07-19T03:47:55;5.68;;;2.33;;
73597;SDS011;61874;48.146;11.594;2022-07-19T03:50:20;3.95;;;2.42;;
73597;SDS011;61874;48.146;11.594;2022-07-19T03:52:45;4.70;;;2.33;;
73597;SDS011;61874;48.146;11.594;2022-07-19T03:55:11;3.97;;;2.42;;
73597;SDS011;61874;48.146;11.594;2022-07-19T03:57:36;6.45;;;2.30;;
73597;SDS011;61874;48.146;11.594;2022-07-19T04:00:02;3.90;;;2.10;;
73597;SDS011;61874;48.146;11.594;2022-07-19T04:02:29;3.80;;;2.20;;
73597;SDS011;61874;48.146;11.594;2022-07-19T04:04:54;6.35;;;2.03;;
73597;SDS011;61874;48.146;11.594;2022-07-19T04:07:20;4.38;;;2.13;;
73597;SDS011;61874;48.146;11.594;2022-07-19T04:09:46;5.75;;;2.33;;
73597;SDS011;61874;48.146;11.594;2022-07-19T04:12:11;5.47;;;2.90;;
73597;SDS011;61874;48.146;11.594;2022-07-19T04:14:37;5.57;;;2.17;;
73597;SDS011;61874;48.146;11.594;2022-07-19T04:17:02;5.30;;;2.30;;
73597;SDS011;61874;48.146;11.594;2022-07-19T04:19:29;4.13;;;2.22;;
73597;SDS011;61874;48.146;11.594;2022-07-19T04:21:55;4.22;;;2.20;;
73597;SDS011;61874;48.146;11.594;2022-07-19T04:24:20;3.72;;;2.00;;
73597;SDS011;61874;48.146;11.594;2022-07-19T04:26:46;5.80;;;2.40;;
73597;SDS011;61874;48.146;11.594;2022-07-19T04:29:11;6.47;;;2.38;;
73597;SDS011;61874;48.146;11.594;2022-07-19T04:31:37;5.53;;;2.47;;
73597;SDS011;61874;48.146;11.594;2022-07-19T04:34:02;5.88;;;2.30;;
73597;SDS011;61874;48.146;11.594;2022-07-19T04:36:28;4.80;;;1.98;;
73597;SDS011;61874;48.146;11.594;2022-07-19T04:38:53;6.45;;;2.50;;
73597;SDS011;61874;48.146;11.594;2022-07-19T04:41:18;8.27;;;2.97;;
73597;SDS011;61874;48.146;11.594;2022-07-19T04:43:44;6.60;;;2.28;;
73597;SDS011;61874;48.146;11.594;2022-07-19T04:46:09;4.72;;;2.63;;
73597;SDS011;61874;48.146;11.594;2022-07-19T04:48:35;5.95;;;2.17;;
73597;SDS011;61874;48.146;11.594;2022-07-19T04:51:00;5.55;;;2.90;;
73597;SDS011;61874;48.146;11.594;2022-07-19T04:53:25;8.80;;;2.05;;
73597;SDS011;61874;48.146;11.594;2022-07-19T04:55:51;5.30;;;2.10;;
73597;SDS011;61874;48.146;11.594;2022-07-19T04:58:16;5.40;;;2.35;;
73597;SDS011;61874;48.146;11.594;2022-07-19T05:00:42;11.82;;;2.53;;
73597;SDS011;61874;48.146;11.594;2022-07-19T05:03:07;11.15;;;2.42;;
73597;SDS011;61874;48.146;11.594;2022-07-19T05:05:32;14.77;;;2.83;;
73597;SDS011;61874;48.146;11.594;2022-07-19T05:07:58;12.68;;;2.72;;
73597;SDS011;61874;48.146;11.594;2022-07-19T05:10:23;6.57;;;2.33;;
73597;SDS011;61874;48.146;11.594;2022-07-19T05:12:49;7.65;;;2.33;;
73597;SDS011;61874;48.146;11.594;2022-07-19T05:15:14;5.00;;;2.50;;
73597;SDS011;61874;48.146;11.594;2022-07-19T05:17:40;10.82;;;2.88;;
73597;SDS011;61874;48.146;11.594;2022-07-19T05:20:05;8.43;;;2.67;;
73597;SDS011;61874;48.146;11.594;2022-07-19T05:22:32;9.68;;;3.08;;
73597;SDS011;61874;48.146;11.594;2022-07-19T05:24:57;6.93;;;2.33;;
73597;SDS011;61874;48.146;11.594;2022-07-19T05:27:23;13.07;;;3.00;;
73597;SDS011;61874;48.146;11.594;2022-07-19T05:29:49;9.25;;;2.47;;
73597;SDS011;61874;48.146;11.594;2022-07-19T05:32:14;8.80;;;2.40;;
73597;SDS011;61874;48.146;11.594;2022-07-19T05:34:40;4.03;;;2.13;;
73597;SDS011;61874;48.146;11.594;2022-07-19T05:37:05;5.03;;;1.90;;
73597;SDS011;61874;48.146;11.594;2022-07-19T05:39:31;9.52;;;2.13;;
73597;SDS011;61874;48.146;11.594;2022-07-19T05:41:56;4.53;;;2.17;;
73597;SDS011;61874;48.146;11.594;2022-07-19T05:44:22;6.15;;;2.22;;
73597;SDS011;61874;48.146;11.594;2022-07-19T05:46:47;6.38;;;2.33;;
73597;SDS011;61874;48.146;11.594;2022-07-19T05:49:13;9.85;;;2.38;;
73597;SDS011;61874;48.146;11.594;2022-07-19T05:51:39;7.93;;;2.53;;
73597;SDS011;61874;48.146;11.594;2022-07-19T05:54:05;7.60;;;2.17;;
73597;SDS011;61874;48.146;11.594;2022-07-19T05:56:31;6.95;;;1.98;;
73597;SDS011;61874;48.146;11.594;2022-07-19T05:58:57;5.88;;;2.15;;
73597;SDS011;61874;48.146;11.594;2022-07-19T06:01:23;4.43;;;1.75;;
73597;SDS011;61874;48.146;11.594;2022-07-19T06:06:14;4.40;;;1.95;;
73597;SDS011;61874;48.146;11.594;2022-07-19T06:08:40;8.05;;;2.15;;
73597;SDS011;61874;48.146;11.594;2022-07-19T06:11:06;5.35;;;2.00;;
73597;SDS011;61874;48.146;11.594;2022-07-19T06:13:33;6.00;;;1.88;;
73597;SDS011;61874;48.146;11.594;2022-07-19T06:16:00;6.05;;;1.92;;
73597;SDS011;61874;48.146;11.594;2022-07-19T06:18:26;6.30;;;2.08;;
73597;SDS011;61874;48.146;11.594;2022-07-19T06:20:51;6.70;;;2.45;;
73597;SDS011;61874;48.146;11.594;2022-07-19T06:23:17;7.45;;;1.90;;
73597;SDS011;61874;48.146;11.594;2022-07-19T06:25:42;7.97;;;2.35;;
73597;SDS011;61874;48.146;11.594;2022-07-19T06:28:08;5.07;;;2.00;;
73597;SDS011;61874;48.146;11.594;2022-07-19T06:30:33;5.38;;;1.85;;
73597;SDS011;61874;48.146;11.594;2022-07-19T06:32:59;4.70;;;1.90;;
73597;SDS011;61874;48.146;11.594;2022-07-19T06:35:24;7.57;;;2.08;;
73597;SDS011;61874;48.146;11.594;2022-07-19T06:37:50;5.50;;;1.65;;
73597;SDS011;61874;48.146;11.594;2022-07-19T06:40:16;5.80;;;1.92;;
73597;SDS011;61874;48.146;11.594;2022-07-19T06:42:41;4.82;;;1.88;;
73597;SDS011;61874;48.146;11.594;2022-07-19T06:45:07;4.55;;;1.80;;
73597;SDS011;61874;48.146;11.594;2022-07-19T06:47:35;4.10;;;1.80;;
73597;SDS011;61874;48.146;11.594;2022-07-19T06:50:00;4.78;;;1.98;;
73597;SDS011;61874;48.146;11.594;2022-07-19T06:52:26;4.35;;;2.30;;
73597;SDS011;61874;48.146;11.594;2022-07-19T06:54:51;3.92;;;2.05;;
73597;SDS011;61874;48.146;11.594;2022-07-19T06:57:17;3.97;;;1.90;;
73597;SDS011;61874;48.146;11.594;2022-07-19T06:59:42;6.22;;;1.90;;
73597;SDS011;61874;48.146;11.594;2022-07-19T07:02:08;4.30;;;2.05;;
73597;SDS011;61874;48.146;11.594;2022-07-19T07:04:33;8.95;;;2.17;;
73597;SDS011;61874;48.146;11.594;2022-07-19T07:06:59;8.45;;;2.58;;
73597;SDS011;61874;48.146;11.594;2022-07-19T07:10:34;4.57;;;1.70;;
73597;SDS011;61874;48.146;11.594;2022-07-19T07:12:59;3.35;;;1.75;;
73597;SDS011;61874;48.146;11.594;2022-07-19T07:15:25;5.07;;;1.80;;
73597;SDS011;61874;48.146;11.594;2022-07-19T07:17:50;3.72;;;1.92;;
73597;SDS011;61874;48.146;11.594;2022-07-19T07:20:16;6.07;;;1.58;;
73597;SDS011;61874;48.146;11.594;2022-07-19T07:22:41;22.08;;;2.40;;
73597;SDS011;61874;48.146;11.594;2022-07-19T07:25:07;5.13;;;1.80;;
73597;SDS011;61874;48.146;11.594;2022-07-19T07:27:32;6.25;;;1.70;;
73597;SDS011;61874;48.146;11.594;2022-07-19T07:29:58;3.72;;;1.52;;
73597;SDS011;61874;48.146;11.594;2022-07-19T07:32:23;5.07;;;1.92;;
73597;SDS011;61874;48.146;11.594;2022-07-19T07:34:51;3.50;;;1.60;;
73597;SDS011;61874;48.146;11.594;2022-07-19T07:37:17;3.92;;;1.80;;
73597;SDS011;61874;48.146;11.594;2022-07-19T07:39:43;4.05;;;1.65;;
73597;SDS011;61874;48.146;11.594;2022-07-19T07:42:08;9.43;;;2.15;;
73597;SDS011;61874;48.146;11.594;2022-07-19T07:44:34;4.47;;;1.83;;
73597;SDS011;61874;48.146;11.594;2022-07-19T07:46:59;3.47;;;1.60;;
73597;SDS011;61874;48.146;11.594;2022-07-19T07:49:25;5.43;;;1.70;;
73597;SDS011;61874;48.146;11.594;2022-07-19T07:51:51;4.75;;;1.88;;
73597;SDS011;61874;48.146;11.594;2022-07-19T07:54:16;2.53;;;1.52;;
73597;SDS011;61874;48.146;11.594;2022-07-19T07:56:42;4.75;;;1.52;;
73597;SDS011;61874;48.146;11.594;2022-07-19T07:59:08;3.40;;;1.92;;
73597;SDS011;61874;48.146;11.594;2022-07-19T08:01:33;3.65;;;1.52;;
73597;SDS011;61874;48.146;11.594;2022-07-19T08:03:59;3.75;;;1.63;;
73597;SDS011;61874;48.146;11.594;2022-07-19T08:06:24;4.47;;;1.80;;
73597;SDS011;61874;48.146;11.594;2022-07-19T08:08:50;3.53;;;1.73;;
73597;SDS011;61874;48.146;11.594;2022-07-19T08:11:15;4.10;;;1.70;;
73597;SDS011;61874;48.146;11.594;2022-07-19T08:13:41;4.78;;;1.60;;
73597;SDS011;61874;48.146;11.594;2022-07-19T08:16:06;5.47;;;1.33;;
73597;SDS011;61874;48.146;11.594;2022-07-19T08:18:32;2.70;;;1.40;;
73597;SDS011;61874;48.146;11.594;2022-07-19T08:20:58;5.55;;;1.35;;
73597;SDS011;61874;48.146;11.594;2022-07-19T08:23:23;3.75;;;1.25;;
73597;SDS011;61874;48.146;11.594;2022-07-19T08:25:49;4.95;;;1.70;;
73597;SDS011;61874;48.146;11.594;2022-07-19T08:28:14;4.80;;;1.65;;
73597;SDS011;61874;48.146;11.594;2022-07-19T08:30:40;5.53;;;1.60;;
73597;SDS011;61874;48.146;11.594;2022-07-19T08:33:05;4.68;;;1.55;;
73597;SDS011;61874;48.146;11.594;2022-07-19T08:35:33;3.60;;;1.63;;
73597;SDS011;61874;48.146;11.594;2022-07-19T08:37:59;2.67;;;1.40;;
73597;SDS011;61874;48.146;11.594;2022-07-19T08:40:24;2.70;;;1.40;;
73597;SDS011;61874;48.146;11.594;2022-07-19T08:42:50;5.30;;;1.27;;
73597;SDS011;61874;48.146;11.594;2022-07-19T08:45:16;3.40;;;1.45;;
73597;SDS011;61874;48.146;11.594;2022-07-19T08:47:41;4.07;;;1.50;;
73597;SDS011;61874;48.146;11.594;2022-07-19T08:50:08;3.50;;;1.50;;
73597;SDS011;61874;48.146;11.594;2022-07-19T08:52:36;4.70;;;1.27;;
73597;SDS011;61874;48.146;11.594;2022-07-19T08:55:02;3.55;;;1.45;;
73597;SDS011;61874;48.146;11.594;2022-07-19T08:57:29;3.67;;;1.30;;
73597;SDS011;61874;48.146;11.594;2022-07-19T09:00:14;3.08;;;1.30;;
73597;SDS011;61874;48.146;11.594;2022-07-19T09:02:40;3.47;;;1.20;;
73597;SDS011;61874;48.146;11.594;2022-07-19T09:05:15;3.33;;;1.08;;
73597;SDS011;61874;48.146;11.594;2022-07-19T09:07:41;2.47;;;1.25;;
73597;SDS011;61874;48.146;11.594;2022-07-19T09:10:23;3.38;;;1.27;;
73597;SDS011;61874;48.146;11.594;2022-07-19T09:18:16;2.50;;;1.20;;
73597;SDS011;61874;48.146;11.594;2022-07-19T09:20:49;3.17;;;1.27;;
73597;SDS011;61874;48.146;11.594;2022-07-19T09:23:17;4.07;;;1.45;;
73597;SDS011;61874;48.146;11.594;2022-07-19T09:25:45;4.55;;;1.33;;
73597;SDS011;61874;48.146;11.594;2022-07-19T09:28:16;4.43;;;1.30;;
73597;SDS011;61874;48.146;11.594;2022-07-19T09:30:49;5.90;;;1.48;;
73597;SDS011;61874;48.146;11.594;2022-07-19T09:33:17;3.80;;;1.40;;
73597;SDS011;61874;48.146;11.594;2022-07-19T09:35:46;2.80;;;1.35;;
73597;SDS011;61874;48.146;11.594;2022-07-19T09:40:44;2.83;;;1.40;;
73597;SDS011;61874;48.146;11.594;2022-07-19T09:43:10;3.78;;;1.30;;
73597;SDS011;61874;48.146;11.594;2022-07-19T09:45:36;6.95;;;2.47;;
73597;SDS011;61874;48.146;11.594;2022-07-19T09:48:01;5.18;;;1.25;;
73597;SDS011;61874;48.146;11.594;2022-07-19T09:50:29;3.47;;;1.48;;
73597;SDS011;61874;48.146;11.594;2022-07-19T09:52:57;2.63;;;1.30;;
73597;SDS011;61874;48.146;11.594;2022-07-19T09:55:24;3.00;;;1.10;;
73597;SDS011;61874;48.146;11.594;2022-07-19T09:57:50;2.25;;;1.08;;
73597;SDS011;61874;48.146;11.594;2022-07-19T10:00:19;3.42;;;1.20;;
73597;SDS011;61874;48.146;11.594;2022-07-19T10:02:56;3.38;;;1.20;;
73597;SDS011;61874;48.146;11.594;2022-07-19T10:05:25;4.50;;;1.30;;
73597;SDS011;61874;48.146;11.594;2022-07-19T10:07:52;4.32;;;1.42;;
73597;SDS011;61874;48.146;11.594;2022-07-19T10:10:19;2.28;;;1.17;;
73597;SDS011;61874;48.146;11.594;2022-07-19T10:12:46;3.22;;;1.30;;
73597;SDS011;61874;48.146;11.594;2022-07-19T10:15:14;4.55;;;1.30;;
73597;SDS011;61874;48.146;11.594;2022-07-19T10:20:25;4.70;;;1.42;;
73597;SDS011;61874;48.146;11.594;2022-07-19T10:25:18;5.28;;;1.60;;
73597;SDS011;61874;48.146;11.594;2022-07-19T10:27:45;4.35;;;1.60;;
73597;SDS011;61874;48.146;11.594;2022-07-19T10:32:39;4.35;;;1.35;;
73597;SDS011;61874;48.146;11.594;2022-07-19T10:37:52;6.32;;;1.40;;
73597;SDS011;61874;48.146;11.594;2022-07-19T10:45:33;4.78;;;1.40;;
73597;SDS011;61874;48.146;11.594;2022-07-19T10:48:00;3.05;;;1.27;;
73597;SDS011;61874;48.146;11.594;2022-07-19T10:50:44;4.72;;;1.30;;
73597;SDS011;61874;48.146;11.594;2022-07-19T10:53:10;3.55;;;1.45;;
73597;SDS011;61874;48.146;11.594;2022-07-19T10:55:36;3.65;;;1.50;;
73597;SDS011;61874;48.146;11.594;2022-07-19T11:00:30;4.00;;;1.50;;
73597;SDS011;61874;48.146;11.594;2022-07-19T11:05:59;3.60;;;1.30;;
73597;SDS011;61874;48.146;11.594;2022-07-19T11:08:39;3.25;;;1.30;;
73597;SDS011;61874;48.146;11.594;2022-07-19T11:11:06;3.00;;;1.40;;
73597;SDS011;61874;48.146;11.594;2022-07-19T11:13:33;2.80;;;1.58;;
73597;SDS011;61874;48.146;11.594;2022-07-19T11:15:59;4.57;;;1.60;;
73597;SDS011;61874;48.146;11.594;2022-07-19T11:18:27;3.92;;;1.40;;
73597;SDS011;61874;48.146;11.594;2022-07-19T11:20:55;3.85;;;1.70;;
73597;SDS011;61874;48.146;11.594;2022-07-19T11:23:23;4.43;;;1.95;;
73597;SDS011;61874;48.146;11.594;2022-07-19T11:25:52;6.63;;;1.80;;
73597;SDS011;61874;48.146;11.594;2022-07-19T11:28:33;4.50;;;1.80;;
73597;SDS011;61874;48.146;11.594;2022-07-19T11:30:59;4.85;;;2.38;;
73597;SDS011;61874;48.146;11.594;2022-07-19T11:33:25;4.78;;;2.00;;
73597;SDS011;61874;48.146;11.594;2022-07-19T11:38:24;4.35;;;1.70;;
73597;SDS011;61874;48.146;11.594;2022-07-19T11:41:12;4.32;;;2.00;;
73597;SDS011;61874;48.146;11.594;2022-07-19T11:43:43;7.57;;;1.75;;
73597;SDS011;61874;48.146;11.594;2022-07-19T11:46:15;4.53;;;2.17;;
73597;SDS011;61874;48.146;11.594;2022-07-19T11:48:42;5.38;;;1.83;;
73597;SDS011;61874;48.146;11.594;2022-07-19T11:51:08;4.53;;;2.15;;
73597;SDS011;61874;48.146;11.594;2022-07-19T11:53:36;4.72;;;2.00;;
73597;SDS011;61874;48.146;11.594;2022-07-19T11:56:03;5.55;;;2.55;;
73597;SDS011;61874;48.146;11.594;2022-07-19T11:58:31;3.55;;;1.88;;
73597;SDS011;61874;48.146;11.594;2022-07-19T12:01:01;5.55;;;2.20;;
73597;SDS011;61874;48.146;11.594;2022-07-19T12:03:29;6.50;;;2.08;;
73597;SDS011;61874;48.146;11.594;2022-07-19T12:08:36;5.68;;;2.00;;
73597;SDS011;61874;48.146;11.594;2022-07-19T12:11:01;5.80;;;2.17;;
73597;SDS011;61874;48.146;11.594;2022-07-19T12:13:50;5.63;;;2.30;;
73597;SDS011;61874;48.146;11.594;2022-07-19T12:16:17;5.90;;;2.85;;
73597;SDS011;61874;48.146;11.594;2022-07-19T12:18:51;6.28;;;2.40;;
73597;SDS011;61874;48.146;11.594;2022-07-19T12:27:10;6.13;;;2.05;;
73597;SDS011;61874;48.146;11.594;2022-07-19T12:32:16;6.88;;;2.13;;
73597;SDS011;61874;48.146;11.594;2022-07-19T12:42:40;5.20;;;2.25;;
73597;SDS011;61874;48.146;11.594;2022-07-19T12:45:13;5.63;;;2.50;;
73597;SDS011;61874;48.146;11.594;2022-07-19T12:50:04;6.53;;;2.50;;
73597;SDS011;61874;48.146;11.594;2022-07-19T12:52:31;7.43;;;2.28;;
73597;SDS011;61874;48.146;11.594;2022-07-19T12:54:56;7.35;;;2.63;;
73597;SDS011;61874;48.146;11.594;2022-07-19T12:57:21;6.63;;;2.15;;
73597;SDS011;61874;48.146;11.594;2022-07-19T12:59:47;5.90;;;2.47;;
73597;SDS011;61874;48.146;11.594;2022-07-19T13:02:13;6.97;;;2.50;;
73597;SDS011;61874;48.146;11.594;2022-07-19T13:04:41;7.50;;;3.10;;
73597;SDS011;61874;48.146;11.594;2022-07-19T13:07:08;4.97;;;2.50;;
73597;SDS011;61874;48.146;11.594;2022-07-19T13:09:34;7.88;;;2.42;;
73597;SDS011;61874;48.146;11.594;2022-07-19T13:12:02;7.97;;;3.38;;
73597;SDS011;61874;48.146;11.594;2022-07-19T13:14:29;5.53;;;2.78;;
73597;SDS011;61874;48.146;11.594;2022-07-19T13:16:55;7.68;;;2.53;;
73597;SDS011;61874;48.146;11.594;2022-07-19T13:19:21;5.68;;;2.58;;
73597;SDS011;61874;48.146;11.594;2022-07-19T13:21:46;8.82;;;3.15;;
73597;SDS011;61874;48.146;11.594;2022-07-19T13:24:12;7.30;;;2.85;;
73597;SDS011;61874;48.146;11.594;2022-07-19T13:26:37;7.70;;;3.28;;
73597;SDS011;61874;48.146;11.594;2022-07-19T13:29:03;8.38;;;3.08;;
73597;SDS011;61874;48.146;11.594;2022-07-19T13:31:29;8.70;;;2.85;;
73597;SDS011;61874;48.146;11.594;2022-07-19T13:33:55;5.45;;;2.65;;
73597;SDS011;61874;48.146;11.594;2022-07-19T13:36:20;7.88;;;2.88;;
73597;SDS011;61874;48.146;11.594;2022-07-19T13:38:46;6.70;;;3.08;;
73597;SDS011;61874;48.146;11.594;2022-07-19T13:41:12;7.85;;;3.20;;
73597;SDS011;61874;48.146;11.594;2022-07-19T13:43:39;5.47;;;3.00;;
73597;SDS011;61874;48.146;11.594;2022-07-19T13:46:04;5.88;;;3.17;;
73597;SDS011;61874;48.146;11.594;2022-07-19T13:48:30;6.38;;;3.10;;
73597;SDS011;61874;48.146;11.594;2022-07-19T13:50:56;5.22;;;2.92;;
73597;SDS011;61874;48.146;11.594;2022-07-19T13:53:21;8.88;;;3.28;;
73597;SDS011;61874;48.146;11.594;2022-07-19T13:55:47;12.85;;;3.00;;
73597;SDS011;61874;48.146;11.594;2022-07-19T13:58:12;8.30;;;3.50;;
73597;SDS011;61874;48.146;11.594;2022-07-19T14:00:39;5.88;;;3.28;;
73597;SDS011;61874;48.146;11.594;2022-07-19T14:03:04;6.63;;;3.45;;
73597;SDS011;61874;48.146;11.594;2022-07-19T14:05:29;7.18;;;3.75;;
73597;SDS011;61874;48.146;11.594;2022-07-19T14:07:55;8.43;;;3.58;;
73597;SDS011;61874;48.146;11.594;2022-07-19T14:10:21;6.40;;;3.65;;
73597;SDS011;61874;48.146;11.594;2022-07-19T14:12:46;9.52;;;3.30;;
73597;SDS011;61874;48.146;11.594;2022-07-19T14:15:12;7.47;;;3.45;;
73597;SDS011;61874;48.146;11.594;2022-07-19T14:17:37;6.32;;;3.28;;
73597;SDS011;61874;48.146;11.594;2022-07-19T14:20:03;10.40;;;3.70;;
73597;SDS011;61874;48.146;11.594;2022-07-19T14:24:56;7.22;;;3.60;;
73597;SDS011;61874;48.146;11.594;2022-07-19T14:27:22;10.45;;;3.72;;
73597;SDS011;61874;48.146;11.594;2022-07-19T14:29:47;9.75;;;3.67;;
73597;SDS011;61874;48.146;11.594;2022-07-19T14:32:13;6.25;;;3.00;;
73597;SDS011;61874;48.146;11.594;2022-07-19T14:34:38;8.43;;;3.70;;
73597;SDS011;61874;48.146;11.594;2022-07-19T14:37:04;7.10;;;3.60;;
73597;SDS011;61874;48.146;11.594;2022-07-19T14:39:30;8.23;;;3.30;;
73597;SDS011;61874;48.146;11.594;2022-07-19T14:41:56;12.55;;;3.35;;
73597;SDS011;61874;48.146;11.594;2022-07-19T14:46:49;9.85;;;3.80;;
73597;SDS011;61874;48.146;11.594;2022-07-19T14:49:14;9.13;;;3.50;;
73597;SDS011;61874;48.146;11.594;2022-07-19T14:51:40;7.43;;;4.10;;
73597;SDS011;61874;48.146;11.594;2022-07-19T14:54:05;10.88;;;3.28;;
73597;SDS011;61874;48.146;11.594;2022-07-19T14:56:31;12.05;;;3.92;;
73597;SDS011;61874;48.146;11.594;2022-07-19T14:58:56;6.35;;;3.38;;
73597;SDS011;61874;48.146;11.594;2022-07-19T15:01:22;8.90;;;3.65;;
73597;SDS011;61874;48.146;11.594;2022-07-19T15:03:48;8.30;;;3.20;;
73597;SDS011;61874;48.146;11.594;2022-07-19T15:06:14;9.25;;;3.42;;
73597;SDS011;61874;48.146;11.594;2022-07-19T15:08:39;8.70;;;3.65;;
73597;SDS011;61874;48.146;11.594;2022-07-19T15:11:05;6.35;;;2.60;;
73597;SDS011;61874;48.146;11.594;2022-07-19T15:13:32;7.13;;;2.95;;
73597;SDS011;61874;48.146;11.594;2022-07-19T15:15:58;5.47;;;3.00;;
73597;SDS011;61874;48.146;11.594;2022-07-19T15:18:23;9.18;;;3.47;;
73597;SDS011;61874;48.146;11.594;2022-07-19T15:20:48;10.48;;;2.75;;
73597;SDS011;61874;48.146;11.594;2022-07-19T15:23:14;9.55;;;3.03;;
73597;SDS011;61874;48.146;11.594;2022-07-19T15:25:39;6.05;;;3.20;;
73597;SDS011;61874;48.146;11.594;2022-07-19T15:28:05;7.53;;;2.80;;
73597;SDS011;61874;48.146;11.594;2022-07-19T15:30:30;5.57;;;2.90;;